Proctor, Texas
Current Conditions -  °F | °C
As of 8:35 AM on Friday 24 Oct 2014 (Local Time) from KMKN Reporting Station
Clear Clear  
Wind Chill: 61°   Ceiling: Unl
Heat Index: 61°   Visibility: 10mi
Dew Point: 61°   Wind: 3mph
Humidity: 100%   Direction: 190°S
Pressure: 30.16"   Gusts: NA
Location:  31.99°N, 98.43°W
Report Text: KMKN 241335Z AUTO 19003KT 10SM CLR 16/16 A3016 RMK AO2 T01610161
Loading
Personal Weather Stations






























Interactive Weather Map
Tropical Storm Tracking
New forecast layout! Learn more

10-Day Weather Forecast

Advertisements
Track Severe Weather on mobile